• Join FlightAware (Why Join?)
  • Login
  • US Flag 
09:18PM EDT


 

Airport Tracker/Info


-or-


 

Live Flight TrackerFlight Track Log ✈ AAL1631 ✈ 11-Jun-2013 ✈ KDCA - KMIA

Flight Track Log - Related Links

Times and Time Zones

All times are in EDT time to prevent confusion due to time zone crossing. See the AAL1631 flight status page for this flight to view local times or setup timezone preferences in your user account.

Time Position Orientation Groundspeed Altitude Reporting Facility
EDT Latitude Longitude Course Direction KTS MPH feet Rate Location/Type
06:15AM 38.8070 -77.0290 170° South 186 214 2,000  Level FlightAware
06:16AM 38.7720 -77.0280 179° South 238 274 3,000 2,100 Climbing FlightAware
06:16AM 38.7420 -77.0210 170° South 276 318 4,100 2,460 Climbing FlightAware
06:16AM 38.7300 -77.0080 140° Southeast 288 331 4,400 1,140 Climbing FlightAware
06:17AM 38.7190 -76.9920 131° Southeast 291 335 4,600 1,140 Climbing FlightAware
06:17AM 38.6970 -76.9490 123° Southeast 297 342 5,200 1,440 Climbing FlightAware
06:17AM 38.6840 -76.9250 125° Southeast 300 345 5,700 2,580 Climbing FlightAware
06:18AM 38.6600 -76.8870 129° Southeast 306 352 7,100 3,480 Climbing FlightAware
06:18AM 38.6370 -76.8490 128° Southeast 309 356 8,800 3,660 Climbing FlightAware
06:19AM 38.6230 -76.8260 128° Southeast 307 353 9,700 2,640 Climbing FlightAware
06:19AM 38.5860 -76.7660 128° Southeast 340 391 11,300 2,460 Climbing FlightAware
06:20AM 38.4830 -76.7140 158° South 353 406 14,300 2,520 Climbing FlightAware
06:21AM 38.4110 -76.7050 174° South 370 426 16,100 2,760 Climbing FlightAware
06:22AM 38.3450 -76.6970 175° South 373 429 18,100 2,820 Climbing FlightAware
06:22AM 38.2660 -76.6860 174° South 378 435 20,100 2,460 Climbing FlightAware
06:23AM 38.1970 -76.6770 174° South 383 441 21,700 2,100 Climbing FlightAware
06:24AM 38.1190 -76.6670 174° South 397 457 23,100 1,860 Climbing FlightAware
06:25AM 38.0400 -76.6560 174° South 406 467 24,400 2,040 Climbing FlightAware
06:25AM 37.9620 -76.6480 175° South 398 458 25,900 1,140 Climbing FlightAware
06:26AM 37.8850 -76.6550 184° South 388 447 26,000 600 Climbing FlightAware
06:27AM 37.8120 -76.6650 186° South 391 450 26,800 1,500 Climbing FlightAware
06:27AM 37.7390 -76.6740 186° South 393 452 28,000 1,620 Climbing FlightAware
06:28AM 37.6560 -76.6850 186° South 395 455 29,200 1,380 Climbing FlightAware
06:29AM 37.5820 -76.6940 186° South 395 455 30,000 540 Climbing FlightAware
06:29AM 37.5040 -76.7040 186° South 395 455 30,000  Level FlightAware
06:30AM 37.4270 -76.7210 190° South 390 449 30,000  Level FlightAware
06:31AM 37.3620 -76.7470 198° South 391 450 30,000 780 Level FlightAware
06:32AM 37.2870 -76.7790 199° South 389 448 31,100 1,320 Climbing FlightAware
06:32AM 37.2140 -76.8090 198° South 386 444 32,000 960 Climbing FlightAware
06:33AM 37.1410 -76.8400 199° South 383 441 32,500 1,200 Climbing FlightAware
06:34AM 37.0750 -76.8670 198° South 376 433 33,700 1,080 Climbing FlightAware
06:34AM 37.0080 -76.8950 198° South 378 435 34,000 180 Climbing FlightAware
06:35AM 36.9440 -76.9220 199° South 378 435 34,000  Level FlightAware
06:36AM 36.8290 -76.9690 198° South 376 433 34,000  Level FlightAware
06:37AM 36.7080 -77.0190 198° South 371 427 34,000  Level FlightAware
06:38AM 36.6520 -77.0420 198° South 371 427 34,000  Level FlightAware
06:39AM 36.4970 -77.1050 198° South 386 444 34,000  Level FlightAware
06:40AM 36.4330 -77.1310 198° South 388 447 34,000  Level FlightAware
06:41AM 36.3570 -77.1620 198° South 390 449 34,000  Level FlightAware
06:42AM 36.2740 -77.1960 198° South 388 447 34,000  Level FlightAware
06:43AM 36.1780 -77.2350 198° South 389 448 34,000  Level FlightAware
06:43AM 36.1110 -77.2620 198° South 389 448 34,000  Level FlightAware
06:44AM 35.9920 -77.3100 198° South 389 448 34,000  Level FlightAware
06:45AM 35.9250 -77.3370 198° South 389 448 34,000  Level FlightAware
06:46AM 35.8370 -77.3720 198° South 389 448 34,000  Level FlightAware
06:46AM 35.7750 -77.3970 198° South 389 448 34,000  Level FlightAware
06:47AM 35.7070 -77.4250 198° South 389 448 34,000  Level FlightAware
06:48AM 35.6290 -77.4560 198° South 389 448 34,000  Level FlightAware
06:49AM 35.5670 -77.4990 209° Southwest 380 437 34,000  Level FlightAware
06:49AM 35.5030 -77.5610 218° Southwest 388 447 34,000  Level FlightAware
06:51AM 35.4270 -77.6340 218° Southwest 388 447 34,000  Level FlightAware
06:51AM 35.3410 -77.7210 220° Southwest 384 442 34,000  Level FlightAware
06:52AM 35.2840 -77.7790 220° Southwest 384 442 34,000  Level FlightAware
06:53AM 35.2420 -77.8220 220° Southwest 384 442 34,000  Level FlightAware
06:54AM 35.1870 -77.8790 220° Southwest 384 442 34,000  Level FlightAware
06:54AM 35.1440 -77.9230 220° Southwest 384 442 34,000  Level FlightAware
06:55AM 35.1010 -77.9670 220° Southwest 384 442 34,000  Level FlightAware
06:55AM 35.0560 -78.0130 220° Southwest 384 442 34,000  Level FlightAware
06:56AM 35.0140 -78.0560 220° Southwest 384 442 34,000  Level FlightAware
06:57AM 34.9590 -78.1130 220° Southwest 384 442 34,000 300 Level FlightAware
06:57AM 34.8070 -78.2400 214° Southwest 400 460 34,500 1,020 Climbing FlightAware
06:58AM 34.7480 -78.2980 219° Southwest 397 457 35,400 780 Climbing FlightAware
06:59AM 34.6480 -78.3940 218° Southwest 396 456 36,000 300 Climbing FlightAware
07:00AM 34.6020 -78.4380 218° Southwest 396 456 36,000  Level FlightAware
07:01AM 34.6340 -78.4070 39° Northeast 395 455 36,000  Level FlightAware
07:02AM 34.4610 -78.5730 218° Southwest 397 457 36,000  Level FlightAware
07:02AM 34.3940 -78.6380 219° Southwest 399 459 36,000  Level FlightAware
07:03AM 34.3260 -78.7020 218° Southwest 401 461 36,000  Level FlightAware
07:04AM 34.2610 -78.7540 213° Southwest 404 465 36,000  Level FlightAware
07:04AM 34.2000 -78.7970 210° Southwest 403 464 36,000  Level FlightAware
07:05AM 34.1090 -78.8590 209° Southwest 405 466 36,000  Level FlightAware
07:06AM 34.0290 -78.9150 210° Southwest 408 470 36,000  Level FlightAware
07:07AM 33.9620 -78.9610 210° Southwest 410 472 36,000  Level FlightAware
07:08AM 33.8940 -79.0080 210° Southwest 412 474 36,000  Level FlightAware
07:08AM 33.8210 -79.0580 210° Southwest 413 475 36,000  Level FlightAware
07:09AM 33.7550 -79.1030 210° Southwest 413 475 36,000  Level FlightAware
07:10AM 33.6880 -79.1490 210° Southwest 414 476 36,000  Level FlightAware
07:10AM 33.6160 -79.1980 210° Southwest 416 479 36,000  Level FlightAware
07:11AM 33.6110 -79.2020 214° Southwest 417 480 36,000  Level FlightAware
07:12AM 33.4450 -79.3140 209° Southwest 422 486 36,000  Level FlightAware
07:13AM 33.3690 -79.3660 210° Southwest 425 489 36,000  Level FlightAware
07:13AM 33.2910 -79.4190 210° Southwest 427 491 36,000  Level FlightAware
07:14AM 33.2230 -79.4650 210° Southwest 430 495 36,000  Level FlightAware
07:15AM 33.1440 -79.5180 209° Southwest 432 497 36,000  Level FlightAware
07:16AM 33.0740 -79.5650 209° Southwest 428 493 36,000  Level FlightAware
07:16AM 32.9960 -79.6170 209° Southwest 425 489 36,000  Level FlightAware
07:17AM 32.9320 -79.6610 210° Southwest 426 490 36,000  Level FlightAware
07:18AM 32.8600 -79.7090 209° Southwest 427 491 36,000  Level FlightAware
07:18AM 32.7910 -79.7550 209° Southwest 428 493 36,000  Level FlightAware
07:19AM 32.7120 -79.8070 209° Southwest 428 493 36,000  Level FlightAware
07:20AM 32.6100 -79.8750 209° Southwest 429 494 36,000  Level FlightAware
07:21AM 32.5330 -79.9260 209° Southwest 430 495 36,000  Level FlightAware
07:21AM 32.4630 -79.9730 210° Southwest 430 495 36,000  Level FlightAware
07:22AM 32.3950 -80.0180 209° Southwest 429 494 36,000  Level FlightAware
07:23AM 32.3070 -80.0760 209° Southwest 430 495 36,000  Level FlightAware
07:24AM 32.2350 -80.1230 209° Southwest 430 495 36,000  Level FlightAware
07:24AM 32.1670 -80.1680 209° Southwest 431 496 36,000  Level FlightAware
07:25AM 32.0870 -80.2200 209° Southwest 432 497 36,000  Level FlightAware
07:26AM 32.0160 -80.2670 209° Southwest 433 498 36,000  Level FlightAware
07:27AM 31.9030 -80.3410 209° Southwest 432 497 36,000  Level FlightAware
07:28AM 31.8210 -80.3950 209° Southwest 432 497 36,000  Level FlightAware
07:28AM 31.7500 -80.4410 209° Southwest 433 498 36,000  Level FlightAware
07:29AM 31.6840 -80.4840 209° Southwest 433 498 36,000  Level FlightAware
07:30AM 31.6290 -80.5200 209° Southwest 433 498 36,000  Level FlightAware
07:30AM 31.5640 -80.5610 208° Southwest 433 498 36,000  Level FlightAware
07:31AM 31.4910 -80.6090 209° Southwest 433 498 36,000  Level FlightAware
07:32AM 31.4380 -80.6440 209° Southwest 433 498 36,000  Level FlightAware
07:33AM 31.3650 -80.6910 209° Southwest 433 498 36,000  Level FlightAware
07:33AM 31.3110 -80.7260 209° Southwest 433 498 36,000  Level FlightAware
07:34AM 31.2560 -80.7620 209° Southwest 433 498 36,000  Level FlightAware
07:35AM 31.1830 -80.8090 209° Southwest 433 498 36,000  Level FlightAware
07:35AM 31.1310 -80.8430 209° Southwest 433 498 36,000  Level FlightAware
07:36AM 31.0630 -80.8870 209° Southwest 433 498 36,000  Level FlightAware
07:37AM 30.9940 -80.9310 209° Southwest 433 498 36,000  Level FlightAware
07:37AM 30.9390 -80.9670 209° Southwest 433 498 36,000  Level FlightAware
07:38AM 30.8660 -81.0140 209° Southwest 433 498 36,000  Level FlightAware
07:43AM 29.9850 -80.7240 164° South 474 545 36,000  Level FlightAware
07:43AM 29.9130 -80.7280 183° South 474 545 36,000  Level FlightAware
07:44AM 29.8270 -80.7330 183° South 474 545 36,000  Level FlightAware
07:45AM 29.7600 -80.7370 183° South 474 545 36,000  Level FlightAware
07:45AM 29.6840 -80.7420 183° South 474 545 36,000  Level FlightAware
07:46AM 29.5950 -80.7470 183° South 474 545 36,000  Level FlightAware
07:47AM 29.5240 -80.7510 183° South 474 545 36,000  Level FlightAware
07:47AM 29.4330 -80.7570 183° South 474 545 36,000  Level FlightAware
07:48AM 29.3660 -80.7610 183° South 474 545 36,000  Level FlightAware
07:49AM 29.2760 -80.7660 183° South 474 545 36,000  Level FlightAware
07:49AM 29.2110 -80.7700 183° South 474 545 36,000  Level FlightAware
07:50AM 29.1240 -80.7750 183° South 474 545 36,000  Level FlightAware
07:51AM 29.0570 -80.7790 183° South 474 545 36,000  Level FlightAware
07:51AM 28.8400 -80.6820 159° South 474 545 36,000  Level FlightAware
07:52AM 28.7410 -80.6590 168° South 473 544 36,000  Level FlightAware
07:53AM 28.6140 -80.6300 169° South 472 543 36,000  Level FlightAware
07:54AM 28.5240 -80.6100 169° South 472 543 36,000  Level FlightAware
07:55AM 28.3650 -80.5730 168° South 473 544 36,000  Level FlightAware
07:56AM 28.2600 -80.5490 169° South 474 545 36,000  Level FlightAware
07:57AM 28.1640 -80.5280 169° South 474 545 36,000  Level FlightAware
07:57AM 28.0820 -80.5100 169° South 473 544 36,000  Level FlightAware
07:58AM 27.9380 -80.4770 169° South 472 543 36,000  Level FlightAware
07:59AM 27.8710 -80.4610 168° South 472 543 36,000  Level FlightAware
08:00AM 27.7880 -80.4410 168° South 472 543 36,000  Level FlightAware
08:00AM 27.7220 -80.4250 168° South 472 543 36,000  Level FlightAware
08:01AM 27.6350 -80.4040 168° South 472 543 36,000  Level FlightAware
08:02AM 27.5700 -80.3880 168° South 472 543 36,000 -8,040 Level FlightAware
08:02AM 27.4050 -80.3600 171° South 441 507 26,000 -7,500 Descending FlightAware
08:03AM 27.3160 -80.3390 168° South 442 509 25,200 -1,320 Descending FlightAware
08:04AM 27.2340 -80.3170 167° South 442 509 24,000 -900 Descending FlightAware
08:05AM 27.1710 -80.3020 168° South 442 509 24,000  Level FlightAware
08:05AM 27.1030 -80.2860 168° South 442 509 24,000  Level FlightAware
08:06AM 27.0210 -80.2660 168° South 442 509 24,000 -2,520 Level FlightAware
08:07AM 26.8950 -80.1730 147° Southeast 409 471 19,800 -3,660 Descending FlightAware
08:08AM 26.8260 -80.1450 160° South 392 451 18,400 -1,980 Descending FlightAware
08:08AM 26.7430 -80.1120 160° South 376 433 17,000 -1,860 Descending FlightAware
08:09AM 26.6760 -80.0870 162° South 368 423 15,800 -1,740 Descending FlightAware
08:10AM 26.6100 -80.0740 170° South 372 428 14,700 -1,500 Descending FlightAware
08:10AM 26.5340 -80.0610 171° South 356 410 13,700 -1,080 Descending FlightAware
08:11AM 26.4400 -80.0450 171° South 342 394 12,900 -780 Descending FlightAware
08:12AM 26.3720 -80.0360 173° South 340 391 12,400 -900 Descending FlightAware
08:13AM 26.3060 -80.0440 186° South 337 388 11,700 -1,260 Descending FlightAware
08:14AM 26.2440 -80.0540 188° South 334 384 10,700 -1,440 Descending FlightAware
08:14AM 26.1980 -80.0600 187° South 328 377 10,000 -840 Descending FlightAware
08:14AM 26.1570 -80.0670 189° South 325 374 9,900 -180 Descending FlightAware
08:15AM 26.1270 -80.0710 187° South 324 373 9,900  Level FlightAware
08:15AM 26.0750 -80.0790 188° South 293 337 9,900  Level FlightAware
08:16AM 26.0400 -80.0840 187° South 268 308 9,900 -480 Level FlightAware
08:16AM 26.0100 -80.0880 187° South 264 304 9,500 -1,020 Descending FlightAware
08:17AM 25.9740 -80.0950 190° South 267 307 9,000 -840 Descending FlightAware
08:17AM 25.9570 -80.1070 212° Southwest 268 308 8,900 -480 Descending FlightAware
08:17AM 25.9490 -80.1210 238° Southwest 264 304 8,800  Descending FlightAware
08:18AM 25.9390 -80.1400 240° Southwest 264 304 8,900 180 Climbing FlightAware
08:18AM 25.9360 -80.1550 257° West 264 304 8,900  Level FlightAware
08:18AM 25.9380 -80.1920 273° West 262 302 8,900  Level FlightAware
08:18AM 25.9400 -80.2130 276° West 261 300 8,900 -300 Level FlightAware
08:19AM 25.9420 -80.2450 274° West 259 298 8,700 -900 Descending FlightAware
08:19AM 25.9440 -80.2690 275° West 260 299 8,300 -1,260 Descending FlightAware
08:20AM 25.9460 -80.3020 274° West 253 291 7,800 -1,440 Descending FlightAware
08:20AM 25.9520 -80.3350 281° West 254 292 7,100 -1,680 Descending FlightAware
08:20AM 25.9600 -80.3700 284° West 252 290 6,300 -1,560 Descending FlightAware
08:21AM 25.9690 -80.4060 286° West 245 282 5,600 -1,680 Descending FlightAware
08:21AM 25.9730 -80.4240 284° West 246 283 5,100 -2,100 Descending FlightAware
08:22AM 25.9800 -80.4560 284° West 243 280 4,200 -1,860 Descending FlightAware
08:22AM 25.9650 -80.4870 242° Southwest 228 262 3,400 -1,200 Descending FlightAware
08:22AM 25.9510 -80.4960 210° Southwest 221 254 3,300 -480 Descending FlightAware
08:23AM 25.9410 -80.4970 185° South 213 245 3,200 -600 Descending FlightAware
08:23AM 25.9170 -80.4820 151° Southeast 190 219 2,900 -540 Descending FlightAware
08:23AM 25.9040 -80.4720 145° Southeast 184 212 2,800 -600 Descending FlightAware
08:24AM 25.8870 -80.4590 145° Southeast 181 208 2,500 -840 Descending FlightAware
08:24AM 25.8700 -80.4410 136° Southeast 182 209 2,100 -900 Descending FlightAware
08:24AM 25.8650 -80.4300 117° Southeast 183 211 1,900 -480 Descending FlightAware
08:25AM 25.8440 -80.3890 120° Southeast 162 186 1,600 -540 Descending FlightAware
08:26AM 25.8340 -80.3700 120° Southeast 151 174 1,200 -900 Descending FlightAware
08:26AM 25.8250 -80.3520 119° Southeast 145 167 800 -780 Descending FlightAware
08:27AM 25.8160 -80.3350 120° Southeast 144 166 500 -720 Descending FlightAware
08:27AM 25.8070 -80.3180 120° Southeast 145 167 200 -720 Descending FlightAware
08:27AM 25.8020 -80.3070 117° Southeast 148 170 -720 Descending FlightAware
08:28AM 25.7940 -80.2910 119° Southeast 92 106  Level FlightAware
08:28AM 25.7920 -80.2870 119° Southeast 40 46  Level FlightAware
08:28AM 25.7910 -80.2850 119° Southeast 23 26  Level FlightAware